sensor_id;sensor_type;location;lat;lon;timestamp;pressure;altitude;pressure_sealevel;temperature;humidity
42771;BME280;28426;42.872;25.314;2023-01-29T00:01:10;97076.19;;;-1.81;99.53
42771;BME280;28426;42.872;25.314;2023-01-29T00:03:44;97092.22;;;-1.86;98.56
42771;BME280;28426;42.872;25.314;2023-01-29T00:06:14;97093.03;;;-1.85;100.00
42771;BME280;28426;42.872;25.314;2023-01-29T00:08:45;97084.03;;;-1.81;100.00
42771;BME280;28426;42.872;25.314;2023-01-29T00:11:16;97094.28;;;-1.78;100.00
42771;BME280;28426;42.872;25.314;2023-01-29T00:13:46;97090.22;;;-1.82;99.62
42771;BME280;28426;42.872;25.314;2023-01-29T00:16:18;97093.78;;;-1.83;100.00
42771;BME280;28426;42.872;25.314;2023-01-29T00:18:51;97093.34;;;-1.77;100.00
42771;BME280;28426;42.872;25.314;2023-01-29T00:21:22;97086.94;;;-1.73;100.00
42771;BME280;28426;42.872;25.314;2023-01-29T00:23:53;97091.13;;;-1.70;100.00
42771;BME280;28426;42.872;25.314;2023-01-29T00:26:25;97090.53;;;-1.74;99.50
42771;BME280;28426;42.872;25.314;2023-01-29T00:28:55;97098.06;;;-1.82;98.66
42771;BME280;28426;42.872;25.314;2023-01-29T00:31:27;97103.84;;;-1.90;98.00
42771;BME280;28426;42.872;25.314;2023-01-29T00:34:00;97098.28;;;-1.98;98.50
42771;BME280;28426;42.872;25.314;2023-01-29T00:36:31;97102.28;;;-1.92;100.00
42771;BME280;28426;42.872;25.314;2023-01-29T00:39:01;97102.69;;;-1.86;100.00
42771;BME280;28426;42.872;25.314;2023-01-29T00:41:38;97105.19;;;-1.84;100.00
42771;BME280;28426;42.872;25.314;2023-01-29T00:44:21;97104.75;;;-1.78;100.00
42771;BME280;28426;42.872;25.314;2023-01-29T00:47:04;97106.25;;;-1.87;97.22
42771;BME280;28426;42.872;25.314;2023-01-29T00:49:59;97101.75;;;-2.24;91.35
42771;BME280;28426;42.872;25.314;2023-01-29T00:52:30;97098.09;;;-2.60;90.43
42771;BME280;28426;42.872;25.314;2023-01-29T00:55:04;97102.81;;;-2.93;90.20
42771;BME280;28426;42.872;25.314;2023-01-29T00:57:36;97107.50;;;-3.25;89.75
42771;BME280;28426;42.872;25.314;2023-01-29T01:00:10;97102.47;;;-3.56;90.30
42771;BME280;28426;42.872;25.314;2023-01-29T01:02:42;97105.28;;;-3.74;91.48
42771;BME280;28426;42.872;25.314;2023-01-29T01:05:28;97099.81;;;-3.69;97.95
42771;BME280;28426;42.872;25.314;2023-01-29T01:07:59;97106.47;;;-3.50;99.14
42771;BME280;28426;42.872;25.314;2023-01-29T01:10:32;97103.53;;;-3.31;99.82
42771;BME280;28426;42.872;25.314;2023-01-29T01:13:03;97100.38;;;-3.09;100.00
42771;BME280;28426;42.872;25.314;2023-01-29T01:15:36;97105.88;;;-2.86;100.00
42771;BME280;28426;42.872;25.314;2023-01-29T01:18:07;97102.97;;;-2.68;100.00
42771;BME280;28426;42.872;25.314;2023-01-29T01:20:41;97106.97;;;-2.50;100.00
42771;BME280;28426;42.872;25.314;2023-01-29T01:23:12;97105.97;;;-2.34;100.00
42771;BME280;28426;42.872;25.314;2023-01-29T01:25:42;97102.28;;;-2.18;100.00
42771;BME280;28426;42.872;25.314;2023-01-29T01:28:13;97111.91;;;-2.06;100.00
42771;BME280;28426;42.872;25.314;2023-01-29T01:30:44;97113.78;;;-1.95;100.00
42771;BME280;28426;42.872;25.314;2023-01-29T01:33:14;97111.25;;;-1.84;100.00
42771;BME280;28426;42.872;25.314;2023-01-29T01:35:48;97111.56;;;-1.75;100.00
42771;BME280;28426;42.872;25.314;2023-01-29T01:38:18;97110.09;;;-1.66;100.00
42771;BME280;28426;42.872;25.314;2023-01-29T01:40:49;97117.38;;;-1.59;100.00
42771;BME280;28426;42.872;25.314;2023-01-29T01:43:23;97113.50;;;-1.53;100.00
42771;BME280;28426;42.872;25.314;2023-01-29T01:45:54;97110.75;;;-1.51;99.31
42771;BME280;28426;42.872;25.314;2023-01-29T01:48:26;97116.88;;;-1.77;92.19
42771;BME280;28426;42.872;25.314;2023-01-29T01:51:02;97118.28;;;-2.10;90.42
42771;BME280;28426;42.872;25.314;2023-01-29T01:53:37;97122.56;;;-2.48;90.29
42771;BME280;28426;42.872;25.314;2023-01-29T01:56:13;97119.03;;;-2.87;88.62
42771;BME280;28426;42.872;25.314;2023-01-29T01:58:48;97119.34;;;-3.20;89.06
42771;BME280;28426;42.872;25.314;2023-01-29T02:01:28;97116.31;;;-3.41;90.58
42771;BME280;28426;42.872;25.314;2023-01-29T02:04:01;97118.66;;;-3.51;92.55
42771;BME280;28426;42.872;25.314;2023-01-29T02:06:51;97108.72;;;-3.59;94.39
42771;BME280;28426;42.872;25.314;2023-01-29T02:09:40;97114.75;;;-3.44;97.07
42771;BME280;28426;42.872;25.314;2023-01-29T02:12:15;97108.91;;;-3.20;100.00
42771;BME280;28426;42.872;25.314;2023-01-29T02:14:50;97117.66;;;-3.21;96.68
42771;BME280;28426;42.872;25.314;2023-01-29T02:17:21;97108.03;;;-3.48;91.84
42771;BME280;28426;42.872;25.314;2023-01-29T02:20:01;97117.13;;;-3.68;92.17
42771;BME280;28426;42.872;25.314;2023-01-29T02:23:07;97117.06;;;-3.81;93.58
42771;BME280;28426;42.872;25.314;2023-01-29T02:29:02;97124.59;;;-3.91;95.15
42771;BME280;28426;42.872;25.314;2023-01-29T02:31:57;97120.97;;;-3.88;96.02
42771;BME280;28426;42.872;25.314;2023-01-29T02:34:39;97116.59;;;-3.88;96.05
42771;BME280;28426;42.872;25.314;2023-01-29T02:37:28;97120.66;;;-3.84;95.49
42771;BME280;28426;42.872;25.314;2023-01-29T02:40:08;97119.00;;;-3.85;94.85
42771;BME280;28426;42.872;25.314;2023-01-29T02:42:47;97126.25;;;-3.75;98.36
42771;BME280;28426;42.872;25.314;2023-01-29T02:45:31;97122.41;;;-3.55;99.48
42771;BME280;28426;42.872;25.314;2023-01-29T02:48:07;97113.56;;;-3.25;100.00
42771;BME280;28426;42.872;25.314;2023-01-29T02:50:44;97125.34;;;-3.05;100.00
42771;BME280;28426;42.872;25.314;2023-01-29T02:53:20;97125.72;;;-2.83;100.00
42771;BME280;28426;42.872;25.314;2023-01-29T02:56:01;97119.41;;;-2.66;100.00
42771;BME280;28426;42.872;25.314;2023-01-29T02:58:38;97122.56;;;-2.48;100.00
42771;BME280;28426;42.872;25.314;2023-01-29T03:01:18;97123.19;;;-2.31;100.00
42771;BME280;28426;42.872;25.314;2023-01-29T03:03:54;97122.34;;;-2.19;100.00
42771;BME280;28426;42.872;25.314;2023-01-29T03:06:31;97127.41;;;-2.03;100.00
42771;BME280;28426;42.872;25.314;2023-01-29T03:09:05;97132.00;;;-1.93;100.00
42771;BME280;28426;42.872;25.314;2023-01-29T03:11:39;97123.81;;;-1.89;100.00
42771;BME280;28426;42.872;25.314;2023-01-29T03:14:14;97134.28;;;-1.76;100.00
42771;BME280;28426;42.872;25.314;2023-01-29T03:16:50;97127.84;;;-1.72;100.00
42771;BME280;28426;42.872;25.314;2023-01-29T03:19:26;97140.19;;;-1.61;100.00
42771;BME280;28426;42.872;25.314;2023-01-29T03:22:05;97131.94;;;-1.54;100.00
42771;BME280;28426;42.872;25.314;2023-01-29T03:24:40;97137.56;;;-1.48;100.00
42771;BME280;28426;42.872;25.314;2023-01-29T03:27:27;97132.00;;;-1.43;100.00
42771;BME280;28426;42.872;25.314;2023-01-29T03:30:13;97140.34;;;-1.38;100.00
42771;BME280;28426;42.872;25.314;2023-01-29T03:33:14;97137.41;;;-1.33;100.00
42771;BME280;28426;42.872;25.314;2023-01-29T03:35:50;97146.72;;;-1.29;100.00
42771;BME280;28426;42.872;25.314;2023-01-29T03:38:23;97142.19;;;-1.27;99.66
42771;BME280;28426;42.872;25.314;2023-01-29T03:41:05;97142.00;;;-1.24;99.41
42771;BME280;28426;42.872;25.314;2023-01-29T03:43:49;97135.69;;;-1.21;99.23
42771;BME280;28426;42.872;25.314;2023-01-29T03:46:27;97133.81;;;-1.19;99.43
42771;BME280;28426;42.872;25.314;2023-01-29T03:49:10;97132.88;;;-1.18;98.98
42771;BME280;28426;42.872;25.314;2023-01-29T03:51:50;97137.03;;;-1.15;98.75
42771;BME280;28426;42.872;25.314;2023-01-29T03:54:27;97137.03;;;-1.15;98.49
42771;BME280;28426;42.872;25.314;2023-01-29T03:57:04;97138.72;;;-1.14;98.50
42771;BME280;28426;42.872;25.314;2023-01-29T03:59:48;97137.66;;;-1.12;98.58
42771;BME280;28426;42.872;25.314;2023-01-29T04:02:46;97134.94;;;-1.10;98.40
42771;BME280;28426;42.872;25.314;2023-01-29T04:05:24;97134.94;;;-1.10;98.06
42771;BME280;28426;42.872;25.314;2023-01-29T04:08:10;97136.59;;;-1.09;98.11
42771;BME280;28426;42.872;25.314;2023-01-29T04:10:47;97136.59;;;-1.09;97.65
42771;BME280;28426;42.872;25.314;2023-01-29T04:13:19;97142.69;;;-1.09;97.71
42771;BME280;28426;42.872;25.314;2023-01-29T04:15:55;97147.06;;;-1.09;97.64
42771;BME280;28426;42.872;25.314;2023-01-29T04:18:53;97143.75;;;-1.11;97.57
42771;BME280;28426;42.872;25.314;2023-01-29T04:21:31;97144.34;;;-1.08;97.46
42771;BME280;28426;42.872;25.314;2023-01-29T04:24:04;97149.59;;;-1.08;97.50
42771;BME280;28426;42.872;25.314;2023-01-29T04:26:47;97154.00;;;-1.08;97.20
42771;BME280;28426;42.872;25.314;2023-01-29T04:29:27;97157.34;;;-1.06;97.47
42771;BME280;28426;42.872;25.314;2023-01-29T04:32:10;97146.00;;;-1.07;97.28
42771;BME280;28426;42.872;25.314;2023-01-29T04:34:58;97161.72;;;-1.07;96.92
42771;BME280;28426;42.872;25.314;2023-01-29T04:37:37;97153.75;;;-1.05;96.86
42771;BME280;28426;42.872;25.314;2023-01-29T04:40:17;97159.97;;;-1.06;96.73
42771;BME280;28426;42.872;25.314;2023-01-29T04:42:55;97161.63;;;-1.05;97.08
42771;BME280;28426;42.872;25.314;2023-01-29T04:45:37;97155.56;;;-1.06;96.63
42771;BME280;28426;42.872;25.314;2023-01-29T04:48:17;97163.53;;;-1.07;96.62
42771;BME280;28426;42.872;25.314;2023-01-29T04:50:55;97166.03;;;-1.06;96.59
42771;BME280;28426;42.872;25.314;2023-01-29T04:53:36;97164.25;;;-1.05;96.42
42771;BME280;28426;42.872;25.314;2023-01-29T04:56:16;97166.84;;;-1.05;96.61
42771;BME280;28426;42.872;25.314;2023-01-29T04:58:51;97173.91;;;-1.06;96.57
42771;BME280;28426;42.872;25.314;2023-01-29T05:01:26;97175.66;;;-1.06;96.47
42771;BME280;28426;42.872;25.314;2023-01-29T05:04:01;97180.91;;;-1.06;96.11
42771;BME280;28426;42.872;25.314;2023-01-29T05:06:34;97181.00;;;-1.08;96.11
42771;BME280;28426;42.872;25.314;2023-01-29T05:09:11;97179.25;;;-1.07;96.32
42771;BME280;28426;42.872;25.314;2023-01-29T05:11:44;97181.84;;;-1.07;96.09
42771;BME280;28426;42.872;25.314;2023-01-29T05:14:18;97186.03;;;-1.04;96.30
42771;BME280;28426;42.872;25.314;2023-01-29T05:16:51;97187.50;;;-1.00;96.20
42771;BME280;28426;42.872;25.314;2023-01-29T05:19:23;97192.63;;;-0.99;96.13
42771;BME280;28426;42.872;25.314;2023-01-29T05:21:54;97182.88;;;-0.97;96.10
42771;BME280;28426;42.872;25.314;2023-01-29T05:24:28;97186.22;;;-0.95;96.07
42771;BME280;28426;42.872;25.314;2023-01-29T05:26:58;97195.66;;;-0.92;96.01
42771;BME280;28426;42.872;25.314;2023-01-29T05:29:44;97196.34;;;-0.90;95.90
42771;BME280;28426;42.872;25.314;2023-01-29T05:32:15;97194.59;;;-0.89;95.74
42771;BME280;28426;42.872;25.314;2023-01-29T05:34:46;97194.47;;;-0.88;95.97
42771;BME280;28426;42.872;25.314;2023-01-29T05:37:16;97190.28;;;-0.90;95.82
42771;BME280;28426;42.872;25.314;2023-01-29T05:39:50;97197.09;;;-0.88;95.56
42771;BME280;28426;42.872;25.314;2023-01-29T05:42:21;97196.25;;;-0.88;95.46
42771;BME280;28426;42.872;25.314;2023-01-29T05:44:52;97204.97;;;-0.88;95.72
42771;BME280;28426;42.872;25.314;2023-01-29T05:47:22;97216.25;;;-0.87;95.51
42771;BME280;28426;42.872;25.314;2023-01-29T05:49:53;97212.69;;;-0.86;95.43
42771;BME280;28426;42.872;25.314;2023-01-29T05:52:24;97225.78;;;-0.86;95.38
42771;BME280;28426;42.872;25.314;2023-01-29T05:54:57;97227.47;;;-0.85;95.44
42771;BME280;28426;42.872;25.314;2023-01-29T05:57:29;97223.91;;;-0.84;95.62
42771;BME280;28426;42.872;25.314;2023-01-29T06:00:00;97220.53;;;-0.86;95.52
42771;BME280;28426;42.872;25.314;2023-01-29T06:02:38;97232.94;;;-0.88;95.18
42771;BME280;28426;42.872;25.314;2023-01-29T06:05:09;97232.81;;;-0.87;95.38
42771;BME280;28426;42.872;25.314;2023-01-29T06:07:40;97232.19;;;-0.90;94.98
42771;BME280;28426;42.872;25.314;2023-01-29T06:10:16;97247.91;;;-0.90;95.27
42771;BME280;28426;42.872;25.314;2023-01-29T06:12:47;97245.28;;;-0.90;95.12
42771;BME280;28426;42.872;25.314;2023-01-29T06:15:18;97241.84;;;-0.91;95.12
42771;BME280;28426;42.872;25.314;2023-01-29T06:17:48;97250.53;;;-0.90;95.07
42771;BME280;28426;42.872;25.314;2023-01-29T06:20:19;97250.53;;;-0.90;94.98
42771;BME280;28426;42.872;25.314;2023-01-29T06:22:50;97247.91;;;-0.90;95.51
42771;BME280;28426;42.872;25.314;2023-01-29T06:25:23;97245.28;;;-0.90;95.10
42771;BME280;28426;42.872;25.314;2023-01-29T06:27:54;97248.53;;;-0.87;95.54
42771;BME280;28426;42.872;25.314;2023-01-29T06:30:26;97253.69;;;-0.85;95.47
42771;BME280;28426;42.872;25.314;2023-01-29T06:32:58;97259.53;;;-0.82;95.50
42771;BME280;28426;42.872;25.314;2023-01-29T06:35:29;97261.94;;;-0.78;95.20
42771;BME280;28426;42.872;25.314;2023-01-29T06:38:00;97255.63;;;-0.76;95.28
42771;BME280;28426;42.872;25.314;2023-01-29T06:40:33;97259.94;;;-0.75;95.21
42771;BME280;28426;42.872;25.314;2023-01-29T06:43:04;97271.97;;;-0.72;95.15
42771;BME280;28426;42.872;25.314;2023-01-29T06:45:34;97271.13;;;-0.73;95.27
42771;BME280;28426;42.872;25.314;2023-01-29T06:48:05;97275.44;;;-0.72;95.03
42771;BME280;28426;42.872;25.314;2023-01-29T06:50:36;97269.13;;;-0.69;95.22
42771;BME280;28426;42.872;25.314;2023-01-29T06:53:06;97278.78;;;-0.70;94.85
42771;BME280;28426;42.872;25.314;2023-01-29T06:55:40;97271.66;;;-0.68;94.95
42771;BME280;28426;42.872;25.314;2023-01-29T06:58:11;97280.53;;;-0.70;94.46
42771;BME280;28426;42.872;25.314;2023-01-29T07:00:41;97284.31;;;-0.99;89.74
42771;BME280;28426;42.872;25.314;2023-01-29T07:03:12;97293.13;;;-1.39;89.12
42771;BME280;28426;42.872;25.314;2023-01-29T07:05:49;97286.00;;;-1.76;91.17
42771;BME280;28426;42.872;25.314;2023-01-29T07:08:20;97292.41;;;-1.80;95.09
42771;BME280;28426;42.872;25.314;2023-01-29T07:10:57;97293.31;;;-1.81;98.17
42771;BME280;28426;42.872;25.314;2023-01-29T07:13:28;97294.78;;;-1.77;97.19
42771;BME280;28426;42.872;25.314;2023-01-29T07:15:59;97300.25;;;-1.80;97.22
42771;BME280;28426;42.872;25.314;2023-01-29T07:18:31;97304.63;;;-1.80;98.10
42771;BME280;28426;42.872;25.314;2023-01-29T07:21:03;97298.53;;;-1.81;99.15
42771;BME280;28426;42.872;25.314;2023-01-29T07:23:34;97307.78;;;-1.75;99.78
42771;BME280;28426;42.872;25.314;2023-01-29T07:26:09;97300.78;;;-1.75;98.32
42771;BME280;28426;42.872;25.314;2023-01-29T07:28:40;97301.38;;;-1.84;97.59
42771;BME280;28426;42.872;25.314;2023-01-29T07:31:12;97311.31;;;-1.89;97.27
42771;BME280;28426;42.872;25.314;2023-01-29T07:33:43;97297.22;;;-2.14;91.50
42771;BME280;28426;42.872;25.314;2023-01-29T07:36:14;97304.63;;;-2.48;89.29
42771;BME280;28426;42.872;25.314;2023-01-29T07:38:48;97301.91;;;-2.89;89.22
42771;BME280;28426;42.872;25.314;2023-01-29T07:41:21;97306.59;;;-3.09;91.67
42771;BME280;28426;42.872;25.314;2023-01-29T07:43:52;97302.81;;;-3.18;94.03
42771;BME280;28426;42.872;25.314;2023-01-29T07:46:22;97304.94;;;-3.10;99.50
42771;BME280;28426;42.872;25.314;2023-01-29T07:48:53;97308.47;;;-2.96;99.97
42771;BME280;28426;42.872;25.314;2023-01-29T07:51:23;97312.34;;;-2.74;100.00
42771;BME280;28426;42.872;25.314;2023-01-29T07:53:54;97320.69;;;-2.55;100.00
42771;BME280;28426;42.872;25.314;2023-01-29T07:56:27;97318.72;;;-2.37;100.00
42771;BME280;28426;42.872;25.314;2023-01-29T07:58:58;97322.84;;;-2.19;100.00
42771;BME280;28426;42.872;25.314;2023-01-29T08:01:28;97327.91;;;-2.03;100.00
42771;BME280;28426;42.872;25.314;2023-01-29T08:03:59;97334.63;;;-1.86;100.00
42771;BME280;28426;42.872;25.314;2023-01-29T08:06:30;97336.25;;;-1.71;100.00
42771;BME280;28426;42.872;25.314;2023-01-29T08:09:00;97337.09;;;-1.57;100.00
42771;BME280;28426;42.872;25.314;2023-01-29T08:11:33;97340.69;;;-1.45;100.00
42771;BME280;28426;42.872;25.314;2023-01-29T08:14:04;97339.84;;;-1.33;100.00
42771;BME280;28426;42.872;25.314;2023-01-29T08:16:35;97345.19;;;-1.21;99.85
42771;BME280;28426;42.872;25.314;2023-01-29T08:19:06;97344.88;;;-1.16;99.75
42771;BME280;28426;42.872;25.314;2023-01-29T08:21:36;97344.97;;;-1.18;99.07
42771;BME280;28426;42.872;25.314;2023-01-29T08:24:07;97343.19;;;-1.17;98.53
42771;BME280;28426;42.872;25.314;2023-01-29T08:26:40;97355.25;;;-1.28;96.89
42771;BME280;28426;42.872;25.314;2023-01-29T08:29:11;97349.16;;;-1.41;96.43
42771;BME280;28426;42.872;25.314;2023-01-29T08:31:42;97359.94;;;-1.46;98.11
42771;BME280;28426;42.872;25.314;2023-01-29T08:34:13;97344.34;;;-1.48;99.14
42771;BME280;28426;42.872;25.314;2023-01-29T08:36:43;97359.28;;;-1.50;97.95
42771;BME280;28426;42.872;25.314;2023-01-29T08:39:14;97358.78;;;-1.55;97.12
42771;BME280;28426;42.872;25.314;2023-01-29T08:41:47;97352.47;;;-1.65;96.74
42771;BME280;28426;42.872;25.314;2023-01-29T08:44:18;97361.56;;;-1.71;97.33
42771;BME280;28426;42.872;25.314;2023-01-29T08:46:49;97360.94;;;-1.75;98.09
42771;BME280;28426;42.872;25.314;2023-01-29T08:49:19;97352.78;;;-1.70;99.92
42771;BME280;28426;42.872;25.314;2023-01-29T08:51:50;97356.16;;;-1.68;99.49
42771;BME280;28426;42.872;25.314;2023-01-29T08:54:21;97365.09;;;-1.85;93.32
42771;BME280;28426;42.872;25.314;2023-01-29T08:56:55;97367.09;;;-2.16;90.43
42771;BME280;28426;42.872;25.314;2023-01-29T08:59:25;97357.91;;;-2.51;90.88
42771;BME280;28426;42.872;25.314;2023-01-29T09:01:56;97370.19;;;-2.81;88.78
42771;BME280;28426;42.872;25.314;2023-01-29T09:04:26;97372.16;;;-3.13;88.32
42771;BME280;28426;42.872;25.314;2023-01-29T09:06:57;97377.25;;;-3.41;89.75
42771;BME280;28426;42.872;25.314;2023-01-29T09:09:28;97373.78;;;-3.56;91.47
42771;BME280;28426;42.872;25.314;2023-01-29T09:12:01;97376.38;;;-3.56;96.43
42771;BME280;28426;42.872;25.314;2023-01-29T09:14:32;97368.13;;;-3.34;100.00
42771;BME280;28426;42.872;25.314;2023-01-29T09:17:02;97361.63;;;-2.97;100.00
42771;BME280;28426;42.872;25.314;2023-01-29T09:19:33;97361.91;;;-2.73;100.00
42771;BME280;28426;42.872;25.314;2023-01-29T09:22:04;97362.91;;;-2.61;100.00
42771;BME280;28426;42.872;25.314;2023-01-29T09:24:37;97360.84;;;-2.56;99.44
42771;BME280;28426;42.872;25.314;2023-01-29T09:27:10;97355.78;;;-2.59;97.29
42771;BME280;28426;42.872;25.314;2023-01-29T09:29:41;97359.94;;;-2.69;94.34
42771;BME280;28426;42.872;25.314;2023-01-29T09:32:12;97357.00;;;-2.65;99.32
42771;BME280;28426;42.872;25.314;2023-01-29T09:34:57;97363.25;;;-2.53;100.00
42771;BME280;28426;42.872;25.314;2023-01-29T09:37:28;97354.34;;;-2.35;100.00
42771;BME280;28426;42.872;25.314;2023-01-29T09:39:59;97363.16;;;-2.51;94.96
42771;BME280;28426;42.872;25.314;2023-01-29T09:42:36;97351.16;;;-2.83;91.57
42771;BME280;28426;42.872;25.314;2023-01-29T09:45:13;97354.81;;;-3.00;93.61
42771;BME280;28426;42.872;25.314;2023-01-29T09:47:45;97350.81;;;-3.06;98.42
42771;BME280;28426;42.872;25.314;2023-01-29T09:50:19;97339.31;;;-2.89;100.00
42771;BME280;28426;42.872;25.314;2023-01-29T09:52:55;97347.59;;;-2.67;100.00
42771;BME280;28426;42.872;25.314;2023-01-29T09:55:30;97341.56;;;-2.68;98.90
42771;BME280;28426;42.872;25.314;2023-01-29T09:58:11;97338.94;;;-2.68;97.89
42771;BME280;28426;42.872;25.314;2023-01-29T10:00:49;97341.25;;;-2.63;99.19
42771;BME280;28426;42.872;25.314;2023-01-29T10:03:35;97337.50;;;-2.59;99.76
42771;BME280;28426;42.872;25.314;2023-01-29T10:06:20;97342.50;;;-2.41;100.00
42771;BME280;28426;42.872;25.314;2023-01-29T10:09:08;97341.06;;;-2.32;100.00
42771;BME280;28426;42.872;25.314;2023-01-29T10:11:45;97341.19;;;-2.34;98.42
42771;BME280;28426;42.872;25.314;2023-01-29T10:14:32;97337.09;;;-2.38;97.08
42771;BME280;28426;42.872;25.314;2023-01-29T10:17:34;97329.94;;;-2.49;95.94
42771;BME280;28426;42.872;25.314;2023-01-29T10:20:34;97332.47;;;-2.62;95.96
42771;BME280;28426;42.872;25.314;2023-01-29T10:23:17;97331.09;;;-2.68;97.21
42771;BME280;28426;42.872;25.314;2023-01-29T10:25:52;97323.81;;;-2.63;98.97
42771;BME280;28426;42.872;25.314;2023-01-29T10:28:27;97326.66;;;-2.53;99.79
42771;BME280;28426;42.872;25.314;2023-01-29T10:31:04;97327.56;;;-2.39;100.00
42771;BME280;28426;42.872;25.314;2023-01-29T10:33:39;97322.50;;;-2.28;100.00
42771;BME280;28426;42.872;25.314;2023-01-29T10:36:34;97318.66;;;-2.22;100.00
42771;BME280;28426;42.872;25.314;2023-01-29T10:39:14;97322.97;;;-2.08;100.00
42771;BME280;28426;42.872;25.314;2023-01-29T10:42:01;97311.69;;;-1.95;100.00
42771;BME280;28426;42.872;25.314;2023-01-29T10:44:43;97315.09;;;-1.80;100.00
42771;BME280;28426;42.872;25.314;2023-01-29T10:47:42;97315.94;;;-1.67;100.00
42771;BME280;28426;42.872;25.314;2023-01-29T10:50:30;97309.03;;;-1.55;100.00
42771;BME280;28426;42.872;25.314;2023-01-29T10:53:26;97305.50;;;-1.41;100.00
42771;BME280;28426;42.872;25.314;2023-01-29T10:56:11;97298.38;;;-1.26;100.00
42771;BME280;28426;42.872;25.314;2023-01-29T10:58:52;97301.69;;;-1.11;100.00
42771;BME280;28426;42.872;25.314;2023-01-29T11:01:24;97296.66;;;-1.01;100.00
42771;BME280;28426;42.872;25.314;2023-01-29T11:04:00;97275.09;;;-1.04;100.00
42771;BME280;28426;42.872;25.314;2023-01-29T11:06:33;97294.13;;;-0.89;99.98
42771;BME280;28426;42.872;25.314;2023-01-29T11:09:07;97298.09;;;-0.84;99.42
42771;BME280;28426;42.872;25.314;2023-01-29T11:11:43;97290.88;;;-0.80;99.39
42771;BME280;28426;42.872;25.314;2023-01-29T11:14:18;97286.13;;;-0.75;99.24
42771;BME280;28426;42.872;25.314;2023-01-29T11:16:51;97282.34;;;-0.71;99.14
42771;BME280;28426;42.872;25.314;2023-01-29T11:19:37;97277.63;;;-0.66;98.82
42771;BME280;28426;42.872;25.314;2023-01-29T11:22:13;97280.72;;;-0.60;98.19
42771;BME280;28426;42.872;25.314;2023-01-29T11:24:44;97286.94;;;-0.61;98.42
42771;BME280;28426;42.872;25.314;2023-01-29T11:27:22;97276.91;;;-0.68;98.21
42771;BME280;28426;42.872;25.314;2023-01-29T11:29:53;97274.91;;;-0.77;96.98
42771;BME280;28426;42.872;25.314;2023-01-29T11:32:25;97272.22;;;-0.88;95.82
42771;BME280;28426;42.872;25.314;2023-01-29T11:35:16;97268.91;;;-1.03;96.04
42771;BME280;28426;42.872;25.314;2023-01-29T11:37:49;97265.47;;;-1.17;96.46
42771;BME280;28426;42.872;25.314;2023-01-29T11:40:36;97264.34;;;-1.26;97.53
42771;BME280;28426;42.872;25.314;2023-01-29T11:43:31;97259.81;;;-1.24;99.41
42771;BME280;28426;42.872;25.314;2023-01-29T11:46:03;97258.78;;;-1.21;99.10
42771;BME280;28426;42.872;25.314;2023-01-29T11:48:41;97258.34;;;-1.28;97.72
42771;BME280;28426;42.872;25.314;2023-01-29T11:51:24;97255.44;;;-1.36;97.43
42771;BME280;28426;42.872;25.314;2023-01-29T11:53:57;97260.34;;;-1.45;98.09
42771;BME280;28426;42.872;25.314;2023-01-29T11:56:32;97261.94;;;-1.42;99.52
42771;BME280;28426;42.872;25.314;2023-01-29T11:59:05;97259.00;;;-1.37;100.00
42771;BME280;28426;42.872;25.314;2023-01-29T12:01:37;97256.91;;;-1.45;98.37
42771;BME280;28426;42.872;25.314;2023-01-29T12:04:15;97257.88;;;-1.46;98.03
42771;BME280;28426;42.872;25.314;2023-01-29T12:06:52;97255.44;;;-1.49;98.17
42771;BME280;28426;42.872;25.314;2023-01-29T12:09:26;97244.16;;;-1.63;98.50
42771;BME280;28426;42.872;25.314;2023-01-29T12:12:16;97256.69;;;-1.55;98.95
42771;BME280;28426;42.872;25.314;2023-01-29T12:15:02;97260.25;;;-1.56;98.89
42771;BME280;28426;42.872;25.314;2023-01-29T12:17:36;97258.28;;;-1.52;100.00
42771;BME280;28426;42.872;25.314;2023-01-29T12:20:12;97259.63;;;-1.47;100.00
42771;BME280;28426;42.872;25.314;2023-01-29T12:22:52;97259.44;;;-1.43;99.69
42771;BME280;28426;42.872;25.314;2023-01-29T12:25:37;97256.16;;;-1.47;99.00
42771;BME280;28426;42.872;25.314;2023-01-29T12:28:21;97261.09;;;-1.42;100.00
42771;BME280;28426;42.872;25.314;2023-01-29T12:31:07;97268.41;;;-1.35;100.00
42771;BME280;28426;42.872;25.314;2023-01-29T12:33:47;97262.38;;;-1.35;99.78
42771;BME280;28426;42.872;25.314;2023-01-29T12:36:25;97263.50;;;-1.39;98.64
42771;BME280;28426;42.872;25.314;2023-01-29T12:39:00;97264.03;;;-1.47;98.04
42771;BME280;28426;42.872;25.314;2023-01-29T12:41:36;97257.44;;;-1.53;98.59
42771;BME280;28426;42.872;25.314;2023-01-29T12:44:16;97263.84;;;-1.57;98.75
42771;BME280;28426;42.872;25.314;2023-01-29T12:46:51;97261.50;;;-1.62;98.49
42771;BME280;28426;42.872;25.314;2023-01-29T12:49:25;97266.13;;;-1.65;99.12
42771;BME280;28426;42.872;25.314;2023-01-29T12:51:59;97262.13;;;-1.58;100.00
42771;BME280;28426;42.872;25.314;2023-01-29T12:54:38;97261.72;;;-1.52;100.00
42771;BME280;28426;42.872;25.314;2023-01-29T12:57:18;97264.25;;;-1.50;99.86
42771;BME280;28426;42.872;25.314;2023-01-29T12:59:54;97263.59;;;-1.54;98.93
42771;BME280;28426;42.872;25.314;2023-01-29T13:02:33;97260.06;;;-1.53;99.27
42771;BME280;28426;42.872;25.314;2023-01-29T13:05:16;97260.25;;;-1.56;99.52
42771;BME280;28426;42.872;25.314;2023-01-29T13:07:53;97255.03;;;-1.56;99.32
42771;BME280;28426;42.872;25.314;2023-01-29T13:10:34;97272.28;;;-1.79;92.55
42771;BME280;28426;42.872;25.314;2023-01-29T13:13:14;97271.09;;;-2.14;90.82
42771;BME280;28426;42.872;25.314;2023-01-29T13:15:46;97268.78;;;-2.46;90.90
42771;BME280;28426;42.872;25.314;2023-01-29T13:18:35;97278.00;;;-2.68;92.34
42771;BME280;28426;42.872;25.314;2023-01-29T13:21:12;97277.28;;;-2.85;93.48
42771;BME280;28426;42.872;25.314;2023-01-29T13:23:44;97282.34;;;-2.96;94.08
42771;BME280;28426;42.872;25.314;2023-01-29T13:26:20;97280.09;;;-3.03;94.32
42771;BME280;28426;42.872;25.314;2023-01-29T13:28:52;97279.66;;;-3.09;94.18
42771;BME280;28426;42.872;25.314;2023-01-29T13:31:27;97285.69;;;-2.94;98.90
42771;BME280;28426;42.872;25.314;2023-01-29T13:34:05;97274.84;;;-2.73;100.00
42771;BME280;28426;42.872;25.314;2023-01-29T13:36:41;97274.06;;;-2.61;99.88